Newman Grove, Nebraska
Current Conditions -  °F | °C
As of 1:15 PM on Friday 28 Nov 2014 (Local Time) from KBVN Reporting Station
Clear Clear  
Wind Chill: 18°   Ceiling: Unl
Heat Index: 18°   Visibility: 10mi
Dew Point: -3°   Wind: 10mph
Humidity: 25%   Direction: 240°WSW
Pressure: 29.65"   Gusts: 21mph
Location:  41.75°N, 97.78°W
Report Text: KBVN 281915Z AUTO 24009G18KT 10SM CLR 18/M03 A2965 RMK AO2 T01801026
Loading
Personal Weather Stations






























Interactive Weather Map New forecast layout! Learn more

10-Day Weather Forecast

Advertisements
Track Severe Weather on mobile